sensor_id;sensor_type;location;lat;lon;timestamp;temperature;humidity
1476;DHT22;730;48.870;12.542;2022-12-29T00:02:14;3.10;5.40
1476;DHT22;730;48.870;12.542;2022-12-29T00:04:40;3.10;5.10
1476;DHT22;730;48.870;12.542;2022-12-29T00:07:06;3.10;5.20
1476;DHT22;730;48.870;12.542;2022-12-29T00:09:33;3.10;5.50
1476;DHT22;730;48.870;12.542;2022-12-29T00:12:01;3.10;5.40
1476;DHT22;730;48.870;12.542;2022-12-29T00:14:27;3.10;5.50
1476;DHT22;730;48.870;12.542;2022-12-29T00:17:12;3.10;5.30
1476;DHT22;730;48.870;12.542;2022-12-29T00:19:39;3.10;5.30
1476;DHT22;730;48.870;12.542;2022-12-29T00:22:24;3.10;5.40
1476;DHT22;730;48.870;12.542;2022-12-29T00:25:10;3.00;5.30
1476;DHT22;730;48.870;12.542;2022-12-29T00:27:56;3.10;5.40
1476;DHT22;730;48.870;12.542;2022-12-29T00:30:41;3.10;5.30
1476;DHT22;730;48.870;12.542;2022-12-29T00:33:29;3.00;5.20
1476;DHT22;730;48.870;12.542;2022-12-29T00:36:16;2.90;5.70
1476;DHT22;730;48.870;12.542;2022-12-29T00:38:49;3.00;5.80
1476;DHT22;730;48.870;12.542;2022-12-29T00:41:35;3.00;5.70
1476;DHT22;730;48.870;12.542;2022-12-29T00:44:20;3.00;5.90
1476;DHT22;730;48.870;12.542;2022-12-29T00:46:46;2.90;5.90
1476;DHT22;730;48.870;12.542;2022-12-29T00:49:13;3.00;6.10
1476;DHT22;730;48.870;12.542;2022-12-29T00:52:10;3.00;6.10
1476;DHT22;730;48.870;12.542;2022-12-29T00:54:38;3.10;5.80
1476;DHT22;730;48.870;12.542;2022-12-29T00:57:06;3.10;5.50
1476;DHT22;730;48.870;12.542;2022-12-29T00:59:34;3.20;5.20
1476;DHT22;730;48.870;12.542;2022-12-29T01:02:01;3.20;4.90
1476;DHT22;730;48.870;12.542;2022-12-29T01:04:27;3.20;4.80
1476;DHT22;730;48.870;12.542;2022-12-29T01:06:53;3.20;4.60
1476;DHT22;730;48.870;12.542;2022-12-29T01:09:19;3.20;4.40
1476;DHT22;730;48.870;12.542;2022-12-29T01:12:06;3.30;4.30
1476;DHT22;730;48.870;12.542;2022-12-29T01:14:32;3.20;4.20
1476;DHT22;730;48.870;12.542;2022-12-29T01:16:58;3.20;4.40
1476;DHT22;730;48.870;12.542;2022-12-29T01:19:25;3.20;4.40
1476;DHT22;730;48.870;12.542;2022-12-29T01:21:51;3.20;4.60
1476;DHT22;730;48.870;12.542;2022-12-29T01:24:18;3.20;4.10
1476;DHT22;730;48.870;12.542;2022-12-29T01:26:45;3.20;4.00
1476;DHT22;730;48.870;12.542;2022-12-29T01:29:12;3.20;3.90
1476;DHT22;730;48.870;12.542;2022-12-29T01:31:38;3.20;3.90
1476;DHT22;730;48.870;12.542;2022-12-29T01:34:04;3.20;3.90
1476;DHT22;730;48.870;12.542;2022-12-29T01:36:31;3.20;3.70
1476;DHT22;730;48.870;12.542;2022-12-29T01:38:57;3.20;3.80
1476;DHT22;730;48.870;12.542;2022-12-29T01:41:23;3.20;3.60
1476;DHT22;730;48.870;12.542;2022-12-29T01:43:52;3.20;3.60
1476;DHT22;730;48.870;12.542;2022-12-29T01:46:31;3.20;3.30
1476;DHT22;730;48.870;12.542;2022-12-29T01:49:10;3.20;3.10
1476;DHT22;730;48.870;12.542;2022-12-29T01:51:45;3.20;3.10
1476;DHT22;730;48.870;12.542;2022-12-29T01:54:24;3.20;2.90
1476;DHT22;730;48.870;12.542;2022-12-29T01:56:54;3.30;2.60
1476;DHT22;730;48.870;12.542;2022-12-29T01:59:25;3.30;2.20
1476;DHT22;730;48.870;12.542;2022-12-29T02:01:52;3.30;1.90
1476;DHT22;730;48.870;12.542;2022-12-29T02:04:18;3.30;1.80
1476;DHT22;730;48.870;12.542;2022-12-29T02:07:00;3.30;2.00
1476;DHT22;730;48.870;12.542;2022-12-29T02:09:27;3.20;2.00
1476;DHT22;730;48.870;12.542;2022-12-29T02:11:53;3.20;1.90
1476;DHT22;730;48.870;12.542;2022-12-29T02:14:20;3.10;2.30
1476;DHT22;730;48.870;12.542;2022-12-29T02:23:00;3.00;2.80
1476;DHT22;730;48.870;12.542;2022-12-29T02:34:45;2.90;2.90
1476;DHT22;730;48.870;12.542;2022-12-29T02:37:50;2.90;2.90
1476;DHT22;730;48.870;12.542;2022-12-29T02:40:32;2.90;3.00
1476;DHT22;730;48.870;12.542;2022-12-29T02:43:25;2.90;2.70
1476;DHT22;730;48.870;12.542;2022-12-29T02:45:59;2.90;2.40
1476;DHT22;730;48.870;12.542;2022-12-29T02:48:38;2.90;2.80
1476;DHT22;730;48.870;12.542;2022-12-29T02:51:21;2.90;2.70
1476;DHT22;730;48.870;12.542;2022-12-29T02:53:50;2.90;2.90
1476;DHT22;730;48.870;12.542;2022-12-29T02:56:36;2.80;2.80
1476;DHT22;730;48.870;12.542;2022-12-29T02:59:02;2.80;2.90
1476;DHT22;730;48.870;12.542;2022-12-29T03:10:37;2.70;3.60
1476;DHT22;730;48.870;12.542;2022-12-29T03:13:15;2.70;3.90
1476;DHT22;730;48.870;12.542;2022-12-29T03:21:37;2.60;3.90
1476;DHT22;730;48.870;12.542;2022-12-29T03:24:27;2.70;4.00
1476;DHT22;730;48.870;12.542;2022-12-29T03:26:56;2.70;3.60
1476;DHT22;730;48.870;12.542;2022-12-29T03:29:25;2.70;3.50
1476;DHT22;730;48.870;12.542;2022-12-29T03:31:54;2.80;3.20
1476;DHT22;730;48.870;12.542;2022-12-29T03:34:21;2.80;2.90
1476;DHT22;730;48.870;12.542;2022-12-29T03:37:00;2.80;2.80
1476;DHT22;730;48.870;12.542;2022-12-29T03:39:28;2.90;2.90
1476;DHT22;730;48.870;12.542;2022-12-29T03:41:58;2.90;2.70
1476;DHT22;730;48.870;12.542;2022-12-29T03:44:33;2.90;2.70
1476;DHT22;730;48.870;12.542;2022-12-29T03:46:59;3.00;2.40
1476;DHT22;730;48.870;12.542;2022-12-29T03:49:25;3.00;2.40
1476;DHT22;730;48.870;12.542;2022-12-29T03:51:51;3.10;2.30
1476;DHT22;730;48.870;12.542;2022-12-29T03:54:17;3.00;2.70
1476;DHT22;730;48.870;12.542;2022-12-29T03:56:43;3.00;2.80
1476;DHT22;730;48.870;12.542;2022-12-29T03:59:09;3.00;3.50
1476;DHT22;730;48.870;12.542;2022-12-29T04:01:35;3.00;3.70
1476;DHT22;730;48.870;12.542;2022-12-29T04:04:01;3.00;3.90
1476;DHT22;730;48.870;12.542;2022-12-29T04:06:27;3.00;3.70
1476;DHT22;730;48.870;12.542;2022-12-29T04:08:53;3.00;3.90
1476;DHT22;730;48.870;12.542;2022-12-29T04:11:21;3.00;3.70
1476;DHT22;730;48.870;12.542;2022-12-29T04:13:47;3.00;3.80
1476;DHT22;730;48.870;12.542;2022-12-29T04:16:13;3.10;3.70
1476;DHT22;730;48.870;12.542;2022-12-29T04:18:39;3.10;3.50
1476;DHT22;730;48.870;12.542;2022-12-29T04:21:06;3.10;3.50
1476;DHT22;730;48.870;12.542;2022-12-29T04:23:35;3.10;3.30
1476;DHT22;730;48.870;12.542;2022-12-29T04:26:02;3.10;3.10
1476;DHT22;730;48.870;12.542;2022-12-29T04:28:28;3.10;2.60
1476;DHT22;730;48.870;12.542;2022-12-29T04:30:54;3.10;3.00
1476;DHT22;730;48.870;12.542;2022-12-29T04:33:21;3.10;2.70
1476;DHT22;730;48.870;12.542;2022-12-29T04:35:47;3.10;2.50
1476;DHT22;730;48.870;12.542;2022-12-29T04:38:13;3.10;2.50
1476;DHT22;730;48.870;12.542;2022-12-29T04:40:41;3.10;2.50
1476;DHT22;730;48.870;12.542;2022-12-29T04:43:08;3.20;2.00
1476;DHT22;730;48.870;12.542;2022-12-29T04:45:34;3.10;2.30
1476;DHT22;730;48.870;12.542;2022-12-29T04:48:00;3.10;2.40
1476;DHT22;730;48.870;12.542;2022-12-29T04:50:26;3.10;2.50
1476;DHT22;730;48.870;12.542;2022-12-29T04:52:53;3.20;2.20
1476;DHT22;730;48.870;12.542;2022-12-29T04:55:19;3.20;2.00
1476;DHT22;730;48.870;12.542;2022-12-29T04:57:45;3.20;2.50
1476;DHT22;730;48.870;12.542;2022-12-29T05:00:11;3.20;2.40
1476;DHT22;730;48.870;12.542;2022-12-29T05:02:38;3.20;2.80
1476;DHT22;730;48.870;12.542;2022-12-29T05:05:05;3.20;2.90
1476;DHT22;730;48.870;12.542;2022-12-29T05:07:31;3.30;2.30
1476;DHT22;730;48.870;12.542;2022-12-29T05:09:59;3.30;2.30
1476;DHT22;730;48.870;12.542;2022-12-29T05:12:25;3.30;2.20
1476;DHT22;730;48.870;12.542;2022-12-29T05:14:51;3.40;2.00
1476;DHT22;730;48.870;12.542;2022-12-29T05:17:17;3.40;1.30
1476;DHT22;730;48.870;12.542;2022-12-29T05:19:43;3.40;1.40
1476;DHT22;730;48.870;12.542;2022-12-29T05:22:09;3.50;1.20
1476;DHT22;730;48.870;12.542;2022-12-29T05:24:35;3.40;1.00
1476;DHT22;730;48.870;12.542;2022-12-29T05:27:01;3.50;1.00
1476;DHT22;730;48.870;12.542;2022-12-29T05:29:27;3.50;1.00
1476;DHT22;730;48.870;12.542;2022-12-29T05:31:53;3.40;1.00
1476;DHT22;730;48.870;12.542;2022-12-29T05:34:19;3.40;1.00
1476;DHT22;730;48.870;12.542;2022-12-29T05:36:45;3.40;1.00
1476;DHT22;730;48.870;12.542;2022-12-29T05:39:11;3.50;1.00
1476;DHT22;730;48.870;12.542;2022-12-29T05:41:37;3.50;1.00
1476;DHT22;730;48.870;12.542;2022-12-29T05:44:04;3.50;1.00
1476;DHT22;730;48.870;12.542;2022-12-29T05:46:30;3.50;1.00
1476;DHT22;730;48.870;12.542;2022-12-29T05:48:57;3.60;1.00
1476;DHT22;730;48.870;12.542;2022-12-29T05:51:23;3.60;1.00
1476;DHT22;730;48.870;12.542;2022-12-29T05:53:49;3.60;1.00
1476;DHT22;730;48.870;12.542;2022-12-29T05:56:16;3.60;1.00
1476;DHT22;730;48.870;12.542;2022-12-29T05:58:42;3.60;1.00
1476;DHT22;730;48.870;12.542;2022-12-29T06:01:08;3.60;1.00
1476;DHT22;730;48.870;12.542;2022-12-29T06:03:36;3.60;1.00
1476;DHT22;730;48.870;12.542;2022-12-29T06:06:03;3.70;1.00
1476;DHT22;730;48.870;12.542;2022-12-29T06:08:29;3.70;1.00
1476;DHT22;730;48.870;12.542;2022-12-29T06:10:55;3.70;1.00
1476;DHT22;730;48.870;12.542;2022-12-29T06:13:21;3.70;1.00
1476;DHT22;730;48.870;12.542;2022-12-29T06:15:51;3.70;1.00
1476;DHT22;730;48.870;12.542;2022-12-29T06:18:17;3.70;1.00
1476;DHT22;730;48.870;12.542;2022-12-29T06:20:44;3.70;1.00
1476;DHT22;730;48.870;12.542;2022-12-29T06:23:10;3.70;1.00
1476;DHT22;730;48.870;12.542;2022-12-29T06:25:37;3.70;1.00
1476;DHT22;730;48.870;12.542;2022-12-29T06:28:03;3.70;1.00
1476;DHT22;730;48.870;12.542;2022-12-29T06:30:31;3.70;1.00
1476;DHT22;730;48.870;12.542;2022-12-29T06:32:58;3.70;1.00
1476;DHT22;730;48.870;12.542;2022-12-29T06:35:25;3.70;1.00
1476;DHT22;730;48.870;12.542;2022-12-29T06:37:51;3.70;1.00
1476;DHT22;730;48.870;12.542;2022-12-29T06:40:17;3.70;1.00
1476;DHT22;730;48.870;12.542;2022-12-29T06:42:43;3.70;1.00
1476;DHT22;730;48.870;12.542;2022-12-29T06:45:10;3.70;1.00
1476;DHT22;730;48.870;12.542;2022-12-29T06:47:36;3.70;1.00
1476;DHT22;730;48.870;12.542;2022-12-29T06:50:02;3.70;1.00
1476;DHT22;730;48.870;12.542;2022-12-29T06:52:29;3.70;1.00
1476;DHT22;730;48.870;12.542;2022-12-29T06:54:55;3.70;1.00
1476;DHT22;730;48.870;12.542;2022-12-29T06:57:21;3.70;1.00
1476;DHT22;730;48.870;12.542;2022-12-29T06:59:47;3.80;1.00
1476;DHT22;730;48.870;12.542;2022-12-29T07:02:15;3.80;1.00
1476;DHT22;730;48.870;12.542;2022-12-29T07:04:43;3.80;1.00
1476;DHT22;730;48.870;12.542;2022-12-29T07:07:09;3.80;1.00
1476;DHT22;730;48.870;12.542;2022-12-29T07:09:35;3.90;1.00
1476;DHT22;730;48.870;12.542;2022-12-29T07:12:01;3.90;1.00
1476;DHT22;730;48.870;12.542;2022-12-29T07:14:27;3.90;1.00
1476;DHT22;730;48.870;12.542;2022-12-29T07:16:55;3.90;1.00
1476;DHT22;730;48.870;12.542;2022-12-29T07:19:21;4.00;1.00
1476;DHT22;730;48.870;12.542;2022-12-29T07:21:47;3.90;1.00
1476;DHT22;730;48.870;12.542;2022-12-29T07:24:13;3.90;1.00
1476;DHT22;730;48.870;12.542;2022-12-29T07:26:39;3.90;1.00
1476;DHT22;730;48.870;12.542;2022-12-29T07:29:05;4.00;1.00
1476;DHT22;730;48.870;12.542;2022-12-29T07:31:31;4.00;1.00
1476;DHT22;730;48.870;12.542;2022-12-29T07:33:57;4.10;1.00
1476;DHT22;730;48.870;12.542;2022-12-29T07:36:23;4.10;1.00
1476;DHT22;730;48.870;12.542;2022-12-29T07:38:49;4.20;1.00
1476;DHT22;730;48.870;12.542;2022-12-29T07:41:16;4.20;1.00
1476;DHT22;730;48.870;12.542;2022-12-29T07:43:42;4.30;1.00
1476;DHT22;730;48.870;12.542;2022-12-29T07:46:11;4.30;1.00
1476;DHT22;730;48.870;12.542;2022-12-29T07:48:37;4.20;1.00
1476;DHT22;730;48.870;12.542;2022-12-29T07:51:04;4.20;1.00
1476;DHT22;730;48.870;12.542;2022-12-29T07:53:30;4.30;1.00
1476;DHT22;730;48.870;12.542;2022-12-29T07:55:56;4.40;1.00
1476;DHT22;730;48.870;12.542;2022-12-29T07:58:22;4.40;1.00
1476;DHT22;730;48.870;12.542;2022-12-29T08:00:53;4.50;1.00
1476;DHT22;730;48.870;12.542;2022-12-29T08:03:19;4.50;1.00
1476;DHT22;730;48.870;12.542;2022-12-29T08:05:45;4.60;1.00
1476;DHT22;730;48.870;12.542;2022-12-29T08:08:11;4.60;1.00
1476;DHT22;730;48.870;12.542;2022-12-29T08:10:37;4.60;1.00
1476;DHT22;730;48.870;12.542;2022-12-29T08:13:03;4.70;1.00
1476;DHT22;730;48.870;12.542;2022-12-29T08:15:29;4.70;1.00
1476;DHT22;730;48.870;12.542;2022-12-29T08:17:55;4.80;1.00
1476;DHT22;730;48.870;12.542;2022-12-29T08:20:21;4.80;1.00
1476;DHT22;730;48.870;12.542;2022-12-29T08:22:47;4.90;1.00
1476;DHT22;730;48.870;12.542;2022-12-29T08:25:14;4.80;1.00
1476;DHT22;730;48.870;12.542;2022-12-29T08:27:40;4.80;1.00
1476;DHT22;730;48.870;12.542;2022-12-29T08:30:06;4.90;1.00
1476;DHT22;730;48.870;12.542;2022-12-29T08:32:32;5.00;1.00
1476;DHT22;730;48.870;12.542;2022-12-29T08:34:59;4.90;1.00
1476;DHT22;730;48.870;12.542;2022-12-29T08:37:26;5.00;1.00
1476;DHT22;730;48.870;12.542;2022-12-29T08:39:52;5.10;1.00
1476;DHT22;730;48.870;12.542;2022-12-29T08:42:18;5.20;1.00
1476;DHT22;730;48.870;12.542;2022-12-29T08:44:44;5.20;1.00
1476;DHT22;730;48.870;12.542;2022-12-29T08:47:11;5.20;1.00
1476;DHT22;730;48.870;12.542;2022-12-29T08:49:37;5.20;1.00
1476;DHT22;730;48.870;12.542;2022-12-29T08:52:03;5.30;1.00
1476;DHT22;730;48.870;12.542;2022-12-29T08:54:29;5.30;1.00
1476;DHT22;730;48.870;12.542;2022-12-29T08:56:55;5.30;1.00
1476;DHT22;730;48.870;12.542;2022-12-29T08:59:24;5.40;1.00
1476;DHT22;730;48.870;12.542;2022-12-29T09:01:50;5.40;1.00
1476;DHT22;730;48.870;12.542;2022-12-29T09:04:16;5.40;1.00
1476;DHT22;730;48.870;12.542;2022-12-29T09:06:44;5.50;1.00
1476;DHT22;730;48.870;12.542;2022-12-29T09:09:10;5.50;1.00
1476;DHT22;730;48.870;12.542;2022-12-29T09:11:37;5.60;1.00
1476;DHT22;730;48.870;12.542;2022-12-29T09:14:03;5.80;1.00
1476;DHT22;730;48.870;12.542;2022-12-29T09:16:29;5.90;1.00
1476;DHT22;730;48.870;12.542;2022-12-29T09:18:56;6.00;1.00
1476;DHT22;730;48.870;12.542;2022-12-29T09:21:22;6.20;1.00
1476;DHT22;730;48.870;12.542;2022-12-29T09:23:48;6.20;1.00
1476;DHT22;730;48.870;12.542;2022-12-29T09:26:14;6.20;1.00
1476;DHT22;730;48.870;12.542;2022-12-29T09:28:41;6.30;1.00
1476;DHT22;730;48.870;12.542;2022-12-29T09:31:07;6.40;1.00
1476;DHT22;730;48.870;12.542;2022-12-29T09:33:33;6.40;1.00
1476;DHT22;730;48.870;12.542;2022-12-29T09:35:59;6.50;1.00
1476;DHT22;730;48.870;12.542;2022-12-29T09:38:26;6.40;1.00
1476;DHT22;730;48.870;12.542;2022-12-29T09:40:56;6.40;1.00
1476;DHT22;730;48.870;12.542;2022-12-29T09:48:48;6.70;1.00
1476;DHT22;730;48.870;12.542;2022-12-29T09:51:21;6.80;1.00
1476;DHT22;730;48.870;12.542;2022-12-29T09:54:00;6.80;1.00
1476;DHT22;730;48.870;12.542;2022-12-29T09:56:28;6.90;1.00
1476;DHT22;730;48.870;12.542;2022-12-29T09:59:15;6.90;1.00
1476;DHT22;730;48.870;12.542;2022-12-29T10:02:40;7.00;1.00
1476;DHT22;730;48.870;12.542;2022-12-29T10:04:45;7.10;1.00
1476;DHT22;730;48.870;12.542;2022-12-29T10:07:26;7.00;1.00
1476;DHT22;730;48.870;12.542;2022-12-29T10:09:57;7.10;1.00
1476;DHT22;730;48.870;12.542;2022-12-29T10:15:19;7.20;1.00
1476;DHT22;730;48.870;12.542;2022-12-29T10:21:27;7.30;1.00
1476;DHT22;730;48.870;12.542;2022-12-29T10:23:55;7.40;1.00
1476;DHT22;730;48.870;12.542;2022-12-29T10:26:26;7.40;1.00
1476;DHT22;730;48.870;12.542;2022-12-29T10:28:58;7.50;1.00
1476;DHT22;730;48.870;12.542;2022-12-29T10:31:44;7.40;1.00
1476;DHT22;730;48.870;12.542;2022-12-29T10:34:25;7.50;1.00
1476;DHT22;730;48.870;12.542;2022-12-29T10:37:02;7.50;1.00
1476;DHT22;730;48.870;12.542;2022-12-29T10:39:38;7.50;1.00
1476;DHT22;730;48.870;12.542;2022-12-29T10:42:43;7.50;1.00
1476;DHT22;730;48.870;12.542;2022-12-29T10:45:15;7.60;1.00
1476;DHT22;730;48.870;12.542;2022-12-29T10:48:01;7.50;1.00
1476;DHT22;730;48.870;12.542;2022-12-29T10:50:29;7.50;1.00
1476;DHT22;730;48.870;12.542;2022-12-29T10:53:00;7.50;1.00
1476;DHT22;730;48.870;12.542;2022-12-29T10:55:32;7.50;1.00
1476;DHT22;730;48.870;12.542;2022-12-29T10:58:04;7.50;1.00
1476;DHT22;730;48.870;12.542;2022-12-29T11:00:31;7.50;1.00
1476;DHT22;730;48.870;12.542;2022-12-29T11:03:39;7.50;1.00
1476;DHT22;730;48.870;12.542;2022-12-29T11:06:24;7.60;1.00
1476;DHT22;730;48.870;12.542;2022-12-29T11:11:36;7.70;1.00
1476;DHT22;730;48.870;12.542;2022-12-29T11:14:27;7.70;1.00
1476;DHT22;730;48.870;12.542;2022-12-29T11:17:01;7.80;1.00
1476;DHT22;730;48.870;12.542;2022-12-29T11:19:30;7.80;1.00
1476;DHT22;730;48.870;12.542;2022-12-29T11:22:21;7.90;1.00
1476;DHT22;730;48.870;12.542;2022-12-29T11:24:49;7.90;1.00
1476;DHT22;730;48.870;12.542;2022-12-29T11:27:19;8.00;1.00
1476;DHT22;730;48.870;12.542;2022-12-29T11:29:50;8.00;1.00
1476;DHT22;730;48.870;12.542;2022-12-29T11:32:22;8.10;1.00
1476;DHT22;730;48.870;12.542;2022-12-29T11:34:49;8.20;1.00
1476;DHT22;730;48.870;12.542;2022-12-29T11:37:19;8.30;1.00
1476;DHT22;730;48.870;12.542;2022-12-29T11:40:18;8.40;1.00
1476;DHT22;730;48.870;12.542;2022-12-29T11:42:52;8.60;1.00
1476;DHT22;730;48.870;12.542;2022-12-29T11:45:26;8.70;1.00
1476;DHT22;730;48.870;12.542;2022-12-29T11:48:01;8.80;1.00
1476;DHT22;730;48.870;12.542;2022-12-29T11:50:33;8.90;1.00
1476;DHT22;730;48.870;12.542;2022-12-29T11:53:23;8.90;1.00
1476;DHT22;730;48.870;12.542;2022-12-29T11:55:56;9.00;1.00
1476;DHT22;730;48.870;12.542;2022-12-29T11:58:31;9.00;1.00
1476;DHT22;730;48.870;12.542;2022-12-29T12:01:10;9.10;1.00
1476;DHT22;730;48.870;12.542;2022-12-29T12:03:44;9.10;1.00
1476;DHT22;730;48.870;12.542;2022-12-29T12:06:16;9.10;1.00
1476;DHT22;730;48.870;12.542;2022-12-29T12:08:53;9.20;1.00
1476;DHT22;730;48.870;12.542;2022-12-29T12:11:28;9.20;1.00
1476;DHT22;730;48.870;12.542;2022-12-29T12:14:07;9.30;1.00
1476;DHT22;730;48.870;12.542;2022-12-29T12:16:41;9.30;1.00
1476;DHT22;730;48.870;12.542;2022-12-29T12:19:17;9.30;1.00
1476;DHT22;730;48.870;12.542;2022-12-29T12:21:51;9.30;1.00
1476;DHT22;730;48.870;12.542;2022-12-29T12:29:32;9.40;1.00
1476;DHT22;730;48.870;12.542;2022-12-29T12:32:09;9.40;1.00
1476;DHT22;730;48.870;12.542;2022-12-29T12:34:41;9.50;1.00
1476;DHT22;730;48.870;12.542;2022-12-29T13:01:08;9.80;1.00
1476;DHT22;730;48.870;12.542;2022-12-29T13:04:30;9.90;1.00
1476;DHT22;730;48.870;12.542;2022-12-29T13:25:41;10.90;1.00
1476;DHT22;730;48.870;12.542;2022-12-29T13:28:27;11.10;1.00
1476;DHT22;730;48.870;12.542;2022-12-29T13:36:52;11.50;1.00
1476;DHT22;730;48.870;12.542;2022-12-29T13:39:24;11.60;1.00
1476;DHT22;730;48.870;12.542;2022-12-29T13:41:54;11.60;1.00
1476;DHT22;730;48.870;12.542;2022-12-29T13:44:24;11.50;1.00
1476;DHT22;730;48.870;12.542;2022-12-29T13:46:52;11.50;1.00
1476;DHT22;730;48.870;12.542;2022-12-29T13:49:21;11.60;1.00
1476;DHT22;730;48.870;12.542;2022-12-29T13:51:59;11.50;1.00
1476;DHT22;730;48.870;12.542;2022-12-29T13:54:45;11.50;1.00
1476;DHT22;730;48.870;12.542;2022-12-29T14:05:27;11.50;1.00
1476;DHT22;730;48.870;12.542;2022-12-29T14:07:59;11.50;1.00
1476;DHT22;730;48.870;12.542;2022-12-29T14:15:32;11.50;1.00
1476;DHT22;730;48.870;12.542;2022-12-29T14:18:03;11.50;1.00
1476;DHT22;730;48.870;12.542;2022-12-29T14:20:30;11.50;1.00
1476;DHT22;730;48.870;12.542;2022-12-29T14:23:00;11.50;1.00
1476;DHT22;730;48.870;12.542;2022-12-29T14:28:38;11.50;1.00
1476;DHT22;730;48.870;12.542;2022-12-29T14:36:43;11.50;1.00
1476;DHT22;730;48.870;12.542;2022-12-29T14:39:43;11.50;1.00
1476;DHT22;730;48.870;12.542;2022-12-29T14:47:31;11.40;1.00
1476;DHT22;730;48.870;12.542;2022-12-29T14:55:45;11.40;1.00
1476;DHT22;730;48.870;12.542;2022-12-29T15:00:47;11.30;1.00
1476;DHT22;730;48.870;12.542;2022-12-29T15:03:23;11.20;1.00
1476;DHT22;730;48.870;12.542;2022-12-29T15:05:55;11.10;1.00
1476;DHT22;730;48.870;12.542;2022-12-29T15:08:35;11.10;1.00
1476;DHT22;730;48.870;12.542;2022-12-29T15:16:50;11.30;1.00
1476;DHT22;730;48.870;12.542;2022-12-29T15:19:26;11.40;1.00
1476;DHT22;730;48.870;12.542;2022-12-29T15:21:54;11.50;1.00
1476;DHT22;730;48.870;12.542;2022-12-29T15:24:25;11.40;1.00
1476;DHT22;730;48.870;12.542;2022-12-29T15:26:53;11.50;1.00
1476;DHT22;730;48.870;12.542;2022-12-29T15:29:38;11.50;1.00
1476;DHT22;730;48.870;12.542;2022-12-29T15:32:23;11.50;1.00
1476;DHT22;730;48.870;12.542;2022-12-29T15:34:55;11.40;1.00
1476;DHT22;730;48.870;12.542;2022-12-29T15:37:42;11.40;1.00
1476;DHT22;730;48.870;12.542;2022-12-29T15:40:28;11.30;1.00
1476;DHT22;730;48.870;12.542;2022-12-29T15:45:34;11.10;1.00
1476;DHT22;730;48.870;12.542;2022-12-29T15:48:01;11.00;1.00
1476;DHT22;730;48.870;12.542;2022-12-29T15:50:34;10.90;1.00
1476;DHT22;730;48.870;12.542;2022-12-29T15:53:01;10.80;1.00
1476;DHT22;730;48.870;12.542;2022-12-29T15:55:36;10.70;1.00
1476;DHT22;730;48.870;12.542;2022-12-29T15:58:20;10.70;1.00
1476;DHT22;730;48.870;12.542;2022-12-29T16:00:51;10.60;1.00
1476;DHT22;730;48.870;12.542;2022-12-29T16:03:19;10.50;1.00
1476;DHT22;730;48.870;12.542;2022-12-29T16:05:55;10.40;1.00
1476;DHT22;730;48.870;12.542;2022-12-29T16:08:29;10.40;1.00
1476;DHT22;730;48.870;12.542;2022-12-29T16:11:00;10.20;1.00
1476;DHT22;730;48.870;12.542;2022-12-29T16:16:28;10.10;1.00
1476;DHT22;730;48.870;12.542;2022-12-29T16:18:56;10.10;1.00
1476;DHT22;730;48.870;12.542;2022-12-29T16:21:28;10.00;1.00
1476;DHT22;730;48.870;12.542;2022-12-29T16:24:00;10.00;1.00
1476;DHT22;730;48.870;12.542;2022-12-29T16:26:26;9.90;1.00
1476;DHT22;730;48.870;12.542;2022-12-29T16:28:58;9.80;1.00
1476;DHT22;730;48.870;12.542;2022-12-29T16:33:58;9.60;1.00
1476;DHT22;730;48.870;12.542;2022-12-29T16:36:51;9.50;1.00
1476;DHT22;730;48.870;12.542;2022-12-29T16:39:37;9.40;1.00
1476;DHT22;730;48.870;12.542;2022-12-29T16:42:45;9.20;1.00
1476;DHT22;730;48.870;12.542;2022-12-29T16:50:31;8.90;1.00
1476;DHT22;730;48.870;12.542;2022-12-29T16:52:57;8.80;1.00
1476;DHT22;730;48.870;12.542;2022-12-29T16:55:24;8.80;1.00
1476;DHT22;730;48.870;12.542;2022-12-29T16:57:52;8.70;1.00
1476;DHT22;730;48.870;12.542;2022-12-29T17:00:29;8.60;1.00
1476;DHT22;730;48.870;12.542;2022-12-29T17:03:00;8.50;1.00
1476;DHT22;730;48.870;12.542;2022-12-29T17:05:26;8.40;1.00
1476;DHT22;730;48.870;12.542;2022-12-29T17:07:53;8.30;1.00
1476;DHT22;730;48.870;12.542;2022-12-29T17:10:20;8.20;1.00
1476;DHT22;730;48.870;12.542;2022-12-29T17:13:07;8.20;1.00
1476;DHT22;730;48.870;12.542;2022-12-29T17:15:33;8.20;1.00
1476;DHT22;730;48.870;12.542;2022-12-29T17:18:00;8.20;1.00
1476;DHT22;730;48.870;12.542;2022-12-29T17:20:29;8.20;1.00
1476;DHT22;730;48.870;12.542;2022-12-29T17:22:56;8.20;1.00
1476;DHT22;730;48.870;12.542;2022-12-29T17:27:57;8.30;1.00
1476;DHT22;730;48.870;12.542;2022-12-29T17:30:25;8.20;1.00
1476;DHT22;730;48.870;12.542;2022-12-29T17:32:53;8.20;1.00
1476;DHT22;730;48.870;12.542;2022-12-29T17:35:22;8.20;1.00
1476;DHT22;730;48.870;12.542;2022-12-29T17:37:49;8.10;1.00
1476;DHT22;730;48.870;12.542;2022-12-29T17:40:18;8.10;1.00
1476;DHT22;730;48.870;12.542;2022-12-29T17:42:47;8.10;1.00
1476;DHT22;730;48.870;12.542;2022-12-29T17:45:19;8.00;1.00
1476;DHT22;730;48.870;12.542;2022-12-29T17:47:45;8.00;1.00
1476;DHT22;730;48.870;12.542;2022-12-29T17:50:13;8.00;1.00
1476;DHT22;730;48.870;12.542;2022-12-29T17:52:40;8.00;1.00
1476;DHT22;730;48.870;12.542;2022-12-29T17:55:14;7.90;1.00
1476;DHT22;730;48.870;12.542;2022-12-29T17:57:40;7.90;1.00
1476;DHT22;730;48.870;12.542;2022-12-29T18:00:13;7.90;1.00
1476;DHT22;730;48.870;12.542;2022-12-29T18:02:39;7.80;1.00
1476;DHT22;730;48.870;12.542;2022-12-29T18:05:14;7.80;1.00
1476;DHT22;730;48.870;12.542;2022-12-29T18:07:42;7.80;1.00
1476;DHT22;730;48.870;12.542;2022-12-29T18:10:08;7.80;1.00
1476;DHT22;730;48.870;12.542;2022-12-29T18:12:41;7.70;1.00
1476;DHT22;730;48.870;12.542;2022-12-29T18:15:25;7.70;1.00
1476;DHT22;730;48.870;12.542;2022-12-29T18:18:10;7.70;1.00
1476;DHT22;730;48.870;12.542;2022-12-29T18:20:37;7.70;1.00
1476;DHT22;730;48.870;12.542;2022-12-29T18:23:03;7.60;1.00
1476;DHT22;730;48.870;12.542;2022-12-29T18:25:46;7.60;1.00
1476;DHT22;730;48.870;12.542;2022-12-29T18:28:14;7.60;1.00
1476;DHT22;730;48.870;12.542;2022-12-29T18:30:40;7.60;1.00
1476;DHT22;730;48.870;12.542;2022-12-29T18:33:07;7.60;1.00
1476;DHT22;730;48.870;12.542;2022-12-29T18:35:39;7.60;1.00
1476;DHT22;730;48.870;12.542;2022-12-29T18:38:06;7.60;1.00
1476;DHT22;730;48.870;12.542;2022-12-29T18:40:33;7.60;1.00
1476;DHT22;730;48.870;12.542;2022-12-29T18:42:59;7.50;1.00
1476;DHT22;730;48.870;12.542;2022-12-29T18:45:26;7.50;1.00
1476;DHT22;730;48.870;12.542;2022-12-29T18:47:52;7.50;1.00
1476;DHT22;730;48.870;12.542;2022-12-29T18:50:19;7.50;1.00
1476;DHT22;730;48.870;12.542;2022-12-29T18:52:53;7.50;1.00
1476;DHT22;730;48.870;12.542;2022-12-29T18:55:22;7.50;1.00
1476;DHT22;730;48.870;12.542;2022-12-29T18:57:49;7.50;1.00
1476;DHT22;730;48.870;12.542;2022-12-29T19:00:18;7.50;1.00
1476;DHT22;730;48.870;12.542;2022-12-29T19:02:45;7.50;1.00
1476;DHT22;730;48.870;12.542;2022-12-29T19:05:21;7.50;1.00
1476;DHT22;730;48.870;12.542;2022-12-29T19:07:48;7.50;1.00
1476;DHT22;730;48.870;12.542;2022-12-29T19:10:16;7.50;1.00
1476;DHT22;730;48.870;12.542;2022-12-29T19:12:43;7.50;1.00
1476;DHT22;730;48.870;12.542;2022-12-29T19:15:29;7.50;1.00
1476;DHT22;730;48.870;12.542;2022-12-29T19:17:57;7.40;1.00
1476;DHT22;730;48.870;12.542;2022-12-29T19:20:31;7.50;1.00
1476;DHT22;730;48.870;12.542;2022-12-29T19:22:59;7.40;1.00
1476;DHT22;730;48.870;12.542;2022-12-29T19:25:25;7.40;1.00
1476;DHT22;730;48.870;12.542;2022-12-29T19:27:52;7.40;1.00
1476;DHT22;730;48.870;12.542;2022-12-29T19:30:23;7.40;1.00
1476;DHT22;730;48.870;12.542;2022-12-29T19:32:51;7.40;1.00